createdAt,value
2022-09-03T00:02:22.610Z,97896.91
2022-09-03T00:05:12.543Z,97900.78
2022-09-03T00:08:03.886Z,97901.13
2022-09-03T00:10:38.137Z,97893.28
2022-09-03T00:13:05.738Z,97899.00
2022-09-03T00:15:33.838Z,97895.50
2022-09-03T00:18:14.397Z,97885.97
2022-09-03T00:20:50.042Z,97883.78
2022-09-03T00:23:23.521Z,97880.56
2022-09-03T00:26:14.877Z,97880.38
2022-09-03T00:29:00.040Z,97878.91
2022-09-03T00:31:39.369Z,97879.97
2022-09-03T00:34:22.132Z,97879.13
2022-09-03T00:36:50.038Z,97882.41
2022-09-03T00:39:19.094Z,97885.09
2022-09-03T00:42:08.350Z,97881.53
2022-09-03T00:44:50.907Z,97894.66
2022-09-03T00:47:32.992Z,97886.72
2022-09-03T00:50:31.385Z,97881.38
2022-09-03T00:53:09.998Z,97877.84
2022-09-03T00:55:48.539Z,97879.72
2022-09-03T00:58:27.807Z,97878.91
2022-09-03T01:00:54.406Z,97886.19
2022-09-03T01:03:59.385Z,97886.34
2022-09-03T01:06:38.114Z,97887.63
2022-09-03T01:09:20.467Z,97883.50
2022-09-03T01:12:03.028Z,97882.72
2022-09-03T01:14:36.567Z,97885.66
2022-09-03T01:17:37.307Z,97885.03
2022-09-03T01:20:55.097Z,97883.53
2022-09-03T01:23:48.627Z,97887.47
2022-09-03T01:26:47.866Z,97886.19
2022-09-03T01:29:35.497Z,97876.75
2022-09-03T01:32:29.103Z,97879.66
2022-09-03T01:35:10.881Z,97872.22
2022-09-03T01:38:16.050Z,97886.66
2022-09-03T01:41:20.788Z,97882.94
2022-09-03T01:44:04.156Z,97883.13
2022-09-03T01:46:38.528Z,97896.56
2022-09-03T01:49:22.579Z,97891.66
2022-09-03T01:52:03.852Z,97880.84
2022-09-03T01:54:51.747Z,97889.66
2022-09-03T01:57:44.264Z,97898.72
2022-09-03T02:00:13.809Z,97902.56
2022-09-03T02:02:43.533Z,97900.19
2022-09-03T02:05:24.618Z,97904.75
2022-09-03T02:08:02.876Z,97902.19
2022-09-03T02:10:43.188Z,97893.84
2022-09-03T02:13:16.868Z,97889.66
2022-09-03T02:15:48.330Z,97892.91
2022-09-03T02:18:18.008Z,97887.13
2022-09-03T02:20:46.785Z,97897.19
2022-09-03T02:23:13.942Z,97900.94
2022-09-03T02:25:44.331Z,97900.53
2022-09-03T02:28:17.343Z,97906.75
2022-09-03T02:30:50.811Z,97912.00
2022-09-03T02:33:17.659Z,97907.91
2022-09-03T02:35:44.799Z,97909.53
2022-09-03T02:38:13.640Z,97910.06
2022-09-03T02:40:40.286Z,97913.38
2022-09-03T02:43:16.301Z,97907.09
2022-09-03T02:45:47.438Z,97896.94
2022-09-03T02:48:17.760Z,97891.66
2022-09-03T02:50:44.314Z,97900.94
2022-09-03T02:53:10.899Z,97901.09
2022-09-03T02:55:37.535Z,97892.75
2022-09-03T02:58:06.804Z,97888.22
2022-09-03T03:00:33.542Z,97894.38
2022-09-03T03:03:01.606Z,97884.38
2022-09-03T03:05:45.821Z,97887.81
2022-09-03T03:08:15.312Z,97884.38
2022-09-03T03:10:44.966Z,97891.44
2022-09-03T03:13:12.572Z,97894.06
2022-09-03T03:15:39.308Z,97893.03
2022-09-03T03:18:07.496Z,97900.25
2022-09-03T03:20:34.618Z,97902.97
2022-09-03T03:23:05.556Z,97912.53
2022-09-03T03:25:36.760Z,97907.81
2022-09-03T03:28:05.101Z,97906.19
2022-09-03T03:30:32.667Z,97905.69
2022-09-03T03:32:59.700Z,97904.84
2022-09-03T03:35:26.424Z,97910.88
2022-09-03T03:37:52.994Z,97901.47
2022-09-03T03:40:20.488Z,97907.44
2022-09-03T03:42:47.079Z,97904.03
2022-09-03T03:45:13.633Z,97919.41
2022-09-03T03:47:40.751Z,97903.84
2022-09-03T03:50:08.128Z,97906.47
2022-09-03T03:52:34.761Z,97911.28
2022-09-03T03:55:01.405Z,97915.28
2022-09-03T03:57:30.437Z,97920.31
2022-09-03T03:59:57.044Z,97911.09
2022-09-03T04:02:23.777Z,97911.72
2022-09-03T04:04:50.433Z,97915.97
2022-09-03T04:07:17.232Z,97918.88
2022-09-03T04:09:43.779Z,97924.41
2022-09-03T04:12:10.286Z,97916.28
2022-09-03T04:14:36.847Z,97913.69
2022-09-03T04:17:03.611Z,97909.22
2022-09-03T04:19:30.316Z,97906.59
2022-09-03T04:21:57.585Z,97903.78
2022-09-03T04:24:24.143Z,97907.78
2022-09-03T04:26:51.714Z,97914.47
2022-09-03T04:29:18.410Z,97908.00
2022-09-03T04:32:04.994Z,97915.03
2022-09-03T04:34:31.900Z,97917.56
2022-09-03T04:36:59.116Z,97907.41
2022-09-03T04:39:26.109Z,97913.59
2022-09-03T04:41:52.783Z,97920.81
2022-09-03T04:44:19.383Z,97917.88
2022-09-03T04:46:47.875Z,97924.28
2022-09-03T04:49:15.164Z,97923.22
2022-09-03T04:51:41.926Z,97921.09
2022-09-03T04:54:10.266Z,97931.97
2022-09-03T04:56:38.812Z,97929.50
2022-09-03T04:59:08.524Z,97917.75
2022-09-03T05:01:36.981Z,97915.38
2022-09-03T05:04:04.848Z,97912.03
2022-09-03T05:06:32.516Z,97917.47
2022-09-03T05:08:59.437Z,97920.66
2022-09-03T05:11:27.649Z,97917.75
2022-09-03T05:13:56.282Z,97916.44
2022-09-03T05:16:23.874Z,97923.91
2022-09-03T05:18:54.041Z,97924.97
2022-09-03T05:21:20.945Z,97918.66
2022-09-03T05:23:50.664Z,97921.78
2022-09-03T05:26:20.326Z,97915.03
2022-09-03T05:28:47.798Z,97920.13
2022-09-03T05:31:16.858Z,97919.34
2022-09-03T05:33:47.965Z,97915.81
2022-09-03T05:36:16.536Z,97919.53
2022-09-03T05:38:43.807Z,97922.16
2022-09-03T05:41:12.580Z,97924.50
2022-09-03T05:43:39.537Z,97920.78
2022-09-03T05:46:11.580Z,97918.66
2022-09-03T05:48:40.129Z,97929.56
2022-09-03T05:51:16.496Z,97928.53
2022-09-03T05:53:47.985Z,97933.41
2022-09-03T05:56:18.069Z,97931.34
2022-09-03T05:58:51.039Z,97934.25
2022-09-03T06:01:20.058Z,97941.59
2022-09-03T06:03:48.924Z,97939.25
2022-09-03T06:06:16.288Z,97941.34
2022-09-03T06:08:44.876Z,97946.06
2022-09-03T06:11:11.823Z,97937.97
2022-09-03T06:13:38.468Z,97946.69
2022-09-03T06:16:06.879Z,97936.25
2022-09-03T06:18:33.490Z,97944.88
2022-09-03T06:21:05.450Z,97947.44
2022-09-03T06:23:33.749Z,97950.88
2022-09-03T06:26:05.119Z,97955.69
2022-09-03T06:28:37.919Z,97949.78
2022-09-03T06:31:07.488Z,97948.69
2022-09-03T06:33:36.149Z,97946.88
2022-09-03T06:36:08.829Z,97951.78
2022-09-03T06:38:36.828Z,97950.69
2022-09-03T06:41:06.363Z,97948.72
2022-09-03T06:43:35.011Z,97941.97
2022-09-03T06:46:07.801Z,97942.16
2022-09-03T06:48:35.392Z,97945.78
2022-09-03T06:51:07.772Z,97949.75
2022-09-03T06:53:37.006Z,97951.78
2022-09-03T06:56:07.598Z,97947.22
2022-09-03T06:58:37.745Z,97948.44
2022-09-03T07:01:13.062Z,97946.84
2022-09-03T07:03:41.566Z,97959.78
2022-09-03T07:06:11.517Z,97959.00
2022-09-03T07:08:38.380Z,97959.59
2022-09-03T07:11:09.239Z,97962.09
2022-09-03T07:13:44.132Z,97957.25
2022-09-03T07:16:19.483Z,97957.72
2022-09-03T07:18:46.670Z,97958.88
2022-09-03T07:21:15.161Z,97955.47
2022-09-03T07:23:41.994Z,97958.31
2022-09-03T07:26:12.205Z,97958.16
2022-09-03T07:28:40.244Z,97962.75
2022-09-03T07:31:29.129Z,97962.25
2022-09-03T07:33:58.524Z,97963.59
2022-09-03T07:36:27.764Z,97960.63
2022-09-03T07:38:58.810Z,97973.38
2022-09-03T07:41:28.978Z,97958.59
2022-09-03T07:43:57.263Z,97956.94
2022-09-03T07:46:27.269Z,97963.66
2022-09-03T07:48:56.078Z,97961.56
2022-09-03T07:51:26.671Z,97961.28
2022-09-03T07:54:02.366Z,97960.69
2022-09-03T07:56:31.225Z,97959.09
2022-09-03T07:58:59.134Z,97963.88
2022-09-03T08:01:28.537Z,97975.91
2022-09-03T08:03:55.781Z,97978.56
2022-09-03T08:06:27.798Z,97980.19
2022-09-03T08:09:04.618Z,97974.41
2022-09-03T08:11:34.660Z,97978.00
2022-09-03T08:14:06.193Z,97967.28
2022-09-03T08:16:39.525Z,97981.50
2022-09-03T08:19:07.392Z,97974.84
2022-09-03T08:21:34.044Z,97983.63
2022-09-03T08:24:02.903Z,97981.16
2022-09-03T08:26:31.888Z,97979.06
2022-09-03T08:28:59.331Z,97982.28
2022-09-03T08:31:27.948Z,97981.09
2022-09-03T08:33:57.176Z,97980.50
2022-09-03T08:36:30.034Z,97973.50
2022-09-03T08:38:59.390Z,97976.53
2022-09-03T08:41:34.070Z,97981.31
2022-09-03T08:44:10.224Z,97981.31
2022-09-03T08:46:47.309Z,97984.72
2022-09-03T08:49:16.843Z,97983.75
2022-09-03T08:51:44.691Z,97991.41
2022-09-03T08:54:12.561Z,97979.41
2022-09-03T08:56:41.283Z,97987.91
2022-09-03T08:59:08.332Z,97978.41
2022-09-03T09:01:44.124Z,97990.09
2022-09-03T09:04:41.262Z,97999.97
2022-09-03T09:07:17.667Z,98002.19
2022-09-03T09:09:54.014Z,98005.91
2022-09-03T09:12:42.686Z,98006.47
2022-09-03T09:15:32.369Z,98014.38
2022-09-03T09:18:10.975Z,98006.03
2022-09-03T09:20:59.634Z,98001.91
2022-09-03T09:23:33.581Z,98017.16
2022-09-03T09:26:01.228Z,98017.50
2022-09-03T09:28:33.872Z,98016.44
2022-09-03T09:31:02.280Z,98011.25
2022-09-03T09:33:31.289Z,98013.94
2022-09-03T09:36:04.139Z,98013.84
2022-09-03T09:38:33.586Z,98017.84
2022-09-03T09:41:11.435Z,98010.16
2022-09-03T09:43:39.106Z,98010.09
2022-09-03T09:46:36.507Z,98005.00
2022-09-03T09:49:09.110Z,98006.50
2022-09-03T09:51:36.132Z,97999.41
2022-09-03T09:54:19.980Z,98002.41
2022-09-03T09:57:00.503Z,98005.88
2022-09-03T09:59:27.087Z,98001.59
2022-09-03T10:02:10.696Z,98008.94
2022-09-03T10:04:40.488Z,98016.19
2022-09-03T10:07:32.123Z,97999.72
2022-09-03T10:10:05.670Z,97993.59
2022-09-03T10:12:59.181Z,97991.81
2022-09-03T10:15:33.006Z,97997.72
2022-09-03T10:18:11.103Z,97995.69
2022-09-03T10:20:58.837Z,97990.94
2022-09-03T10:23:28.297Z,97995.81
2022-09-03T10:26:07.364Z,97999.06
2022-09-03T10:28:41.888Z,97996.72
2022-09-03T10:31:19.048Z,97992.81
2022-09-03T10:34:13.592Z,97994.53
2022-09-03T10:37:05.048Z,97994.25
2022-09-03T10:39:43.025Z,97992.03
2022-09-03T10:42:22.079Z,97995.38
2022-09-03T10:45:10.452Z,97983.88
2022-09-03T10:48:01.307Z,97988.47
2022-09-03T10:50:31.955Z,97984.75
2022-09-03T10:53:12.047Z,97991.47
2022-09-03T10:56:26.801Z,97991.59
2022-09-03T10:58:58.951Z,97988.41
2022-09-03T11:01:53.732Z,97987.16
2022-09-03T11:04:37.853Z,97977.81
2022-09-03T11:07:07.790Z,97974.66
2022-09-03T11:10:00.450Z,97979.75
2022-09-03T11:12:37.032Z,97975.06
2022-09-03T11:15:28.447Z,97970.47
2022-09-03T11:17:59.818Z,97967.69
2022-09-03T11:20:27.692Z,97964.31
2022-09-03T11:23:00.335Z,97960.38
2022-09-03T11:25:36.805Z,97958.66
2022-09-03T11:28:12.491Z,97951.78
2022-09-03T11:30:49.836Z,97951.44
2022-09-03T11:33:20.006Z,97949.00
2022-09-03T11:35:46.780Z,97941.81
2022-09-03T11:38:21.076Z,97937.66
2022-09-03T11:41:22.779Z,97947.84
2022-09-03T11:43:49.406Z,97947.28
2022-09-03T11:46:22.200Z,97940.63
2022-09-03T11:48:49.482Z,97941.66
2022-09-03T11:51:25.130Z,97942.84
2022-09-03T11:54:23.820Z,97943.50
2022-09-03T11:56:50.638Z,97948.28
2022-09-03T11:59:20.010Z,97964.75
2022-09-03T12:01:53.675Z,97961.66
2022-09-03T12:04:29.355Z,97965.44
2022-09-03T12:07:20.186Z,97969.50
2022-09-03T12:10:02.444Z,97982.88
2022-09-03T12:12:48.435Z,97975.38
2022-09-03T12:15:23.504Z,97976.19
2022-09-03T12:18:20.983Z,97980.09
2022-09-03T12:21:00.234Z,97979.69
2022-09-03T12:23:35.892Z,97981.63
2022-09-03T12:26:06.451Z,97974.81
2022-09-03T12:28:37.205Z,97977.97
2022-09-03T12:31:20.246Z,97989.75
2022-09-03T12:33:55.677Z,97982.41
2022-09-03T12:36:23.076Z,97984.03
2022-09-03T12:39:10.964Z,97991.94
2022-09-03T12:41:37.765Z,98004.00
2022-09-03T12:44:05.461Z,98004.25
2022-09-03T12:46:34.054Z,97998.75
2022-09-03T12:52:30.849Z,98010.19
2022-09-03T12:54:59.878Z,98023.63
2022-09-03T12:57:42.594Z,98029.59
2022-09-03T13:00:13.638Z,98014.38
2022-09-03T13:02:49.287Z,98023.47
2022-09-03T13:05:19.623Z,98025.50
2022-09-03T13:07:51.616Z,98033.13
2022-09-03T13:10:26.895Z,98036.66
2022-09-03T13:12:58.939Z,98034.47
2022-09-03T13:15:26.011Z,98029.41
2022-09-03T13:18:16.102Z,98035.19
2022-09-03T13:20:54.615Z,98026.50
2022-09-03T13:23:45.640Z,98037.78
2022-09-03T13:26:30.811Z,98035.56
2022-09-03T13:29:41.547Z,98035.41
2022-09-03T13:32:17.227Z,98033.47
2022-09-03T13:34:52.338Z,98029.03
2022-09-03T13:37:42.441Z,98035.31
2022-09-03T13:40:27.409Z,98033.50
2022-09-03T13:42:58.706Z,98036.38
2022-09-03T13:45:29.814Z,98042.00
2022-09-03T13:48:18.800Z,98045.97
2022-09-03T13:50:57.687Z,98034.91
2022-09-03T13:53:42.530Z,98031.16
2022-09-03T13:56:18.171Z,98029.94
2022-09-03T13:58:48.245Z,98029.59
2022-09-03T14:01:32.818Z,98029.72
2022-09-03T14:04:02.863Z,98021.97
2022-09-03T14:06:47.050Z,98015.47
2022-09-03T14:09:44.810Z,98009.28
2022-09-03T14:12:15.186Z,98006.84
2022-09-03T14:15:06.766Z,97998.53
2022-09-03T14:17:59.765Z,98007.81
2022-09-03T14:20:34.040Z,98002.88
2022-09-03T14:23:05.247Z,98000.50
2022-09-03T14:25:33.158Z,98009.28
2022-09-03T14:28:30.340Z,98015.56
2022-09-03T14:31:19.117Z,98025.16
2022-09-03T14:33:55.759Z,98018.38
2022-09-03T14:36:29.742Z,98018.84
2022-09-03T14:39:14.952Z,98013.97
2022-09-03T14:41:57.939Z,98016.97
2022-09-03T14:44:51.280Z,98014.41
2022-09-03T14:47:30.453Z,98010.41
2022-09-03T14:50:03.046Z,98010.91
2022-09-03T14:52:38.505Z,98011.84
2022-09-03T14:55:14.228Z,98023.94
2022-09-03T14:57:46.443Z,98031.25
2022-09-03T15:00:20.318Z,98033.63
2022-09-03T15:03:03.115Z,98033.59
2022-09-03T15:05:56.283Z,98035.53
2022-09-03T15:08:33.832Z,98034.25
2022-09-03T15:11:14.803Z,98039.50
2022-09-03T15:13:48.834Z,98037.59
2022-09-03T15:16:37.631Z,98030.50
2022-09-03T15:19:30.479Z,98038.91
2022-09-03T15:22:14.654Z,98046.06
2022-09-03T15:24:54.879Z,98048.56
2022-09-03T15:27:36.997Z,98046.38
2022-09-03T15:30:15.728Z,98036.91
2022-09-03T15:32:47.863Z,98041.09
2022-09-03T15:35:40.413Z,98034.69
2022-09-03T15:38:14.256Z,98027.91
2022-09-03T15:40:42.351Z,98035.38
2022-09-03T15:43:12.593Z,98037.03
2022-09-03T15:45:48.431Z,98028.75
2022-09-03T15:48:46.022Z,98033.22
2022-09-03T15:51:18.386Z,98038.84
2022-09-03T15:54:03.535Z,98038.06
2022-09-03T15:57:06.046Z,98033.16
2022-09-03T15:59:41.628Z,98027.75
2022-09-03T16:02:12.609Z,98031.28
2022-09-03T16:04:50.709Z,98025.88
2022-09-03T16:07:42.355Z,98035.69
2022-09-03T16:10:25.333Z,98036.44
2022-09-03T16:13:03.952Z,98039.69
2022-09-03T16:15:43.442Z,98040.19
2022-09-03T16:18:35.774Z,98037.13
2022-09-03T16:21:07.869Z,98030.28
2022-09-03T16:23:52.304Z,98040.28
2022-09-03T16:26:41.205Z,98043.88
2022-09-03T16:29:17.682Z,98036.69
2022-09-03T16:31:50.048Z,98035.53
2022-09-03T16:34:35.303Z,98030.88
2022-09-03T16:37:08.348Z,98026.28
2022-09-03T16:39:41.071Z,98032.53
2022-09-03T16:42:11.927Z,98031.81
2022-09-03T16:44:59.801Z,98027.41
2022-09-03T16:47:35.875Z,98026.66
2022-09-03T16:50:21.122Z,98028.22
2022-09-03T16:53:19.790Z,98042.97
2022-09-03T16:56:34.123Z,98037.41
2022-09-03T16:59:06.297Z,98032.06
2022-09-03T17:01:35.750Z,98033.00
2022-09-03T17:04:45.487Z,98039.59
2022-09-03T17:07:46.224Z,98030.22
2022-09-03T17:10:25.836Z,98038.44
2022-09-03T17:12:52.350Z,98033.75
2022-09-03T17:15:40.722Z,98034.94
2022-09-03T17:18:16.228Z,98030.50
2022-09-03T17:20:53.586Z,98036.28
2022-09-03T17:23:52.153Z,98034.75
2022-09-03T17:26:26.676Z,98045.25
2022-09-03T17:29:25.240Z,98042.03
2022-09-03T17:32:27.986Z,98046.69
2022-09-03T17:35:05.416Z,98050.09
2022-09-03T17:37:52.729Z,98047.44
2022-09-03T17:40:56.376Z,98053.47
2022-09-03T17:43:24.823Z,98061.22
2022-09-03T17:46:08.467Z,98061.22
2022-09-03T17:48:54.158Z,98062.25
2022-09-03T17:51:35.234Z,98065.78
2022-09-03T17:54:20.134Z,98068.91
2022-09-03T17:57:00.826Z,98070.97
2022-09-03T17:59:46.127Z,98071.44
2022-09-03T18:02:32.350Z,98079.50
2022-09-03T18:05:23.886Z,98080.16
2022-09-03T18:08:08.563Z,98094.09
2022-09-03T18:10:44.173Z,98099.16
2022-09-03T18:13:23.786Z,98105.47
2022-09-03T18:16:14.828Z,98107.00
2022-09-03T18:18:51.452Z,98104.09
2022-09-03T18:21:40.772Z,98110.03
2022-09-03T18:24:51.316Z,98112.06
2022-09-03T18:27:46.503Z,98109.16
2022-09-03T18:30:33.821Z,98113.31
2022-09-03T18:33:19.073Z,98117.41
2022-09-03T18:36:05.798Z,98122.88
2022-09-03T18:38:58.332Z,98115.56
2022-09-03T18:42:09.839Z,98118.31
2022-09-03T18:45:47.297Z,98120.72
2022-09-03T18:49:13.503Z,98122.81
2022-09-03T18:52:21.528Z,98122.72
2022-09-03T18:55:13.811Z,98124.78
2022-09-03T18:58:42.154Z,98125.72
2022-09-03T19:01:40.223Z,98124.69
2022-09-03T19:04:52.664Z,98127.53
2022-09-03T19:08:00.060Z,98126.34
2022-09-03T19:11:16.067Z,98132.44
2022-09-03T19:14:01.297Z,98130.53
2022-09-03T19:16:52.592Z,98135.06
2022-09-03T19:19:53.612Z,98137.78
2022-09-03T19:22:55.217Z,98140.69
2022-09-03T19:25:42.038Z,98142.91
2022-09-03T19:28:40.493Z,98141.97
2022-09-03T19:31:38.127Z,98153.53
2022-09-03T19:34:45.629Z,98153.44
2022-09-03T19:37:37.897Z,98148.72
2022-09-03T19:40:46.846Z,98154.91
2022-09-03T19:43:57.633Z,98148.53
2022-09-03T19:47:10.896Z,98160.75
2022-09-03T19:50:08.516Z,98159.72
2022-09-03T19:53:09.117Z,98165.00
2022-09-03T19:56:02.840Z,98168.09
2022-09-03T19:58:52.673Z,98166.00
2022-09-03T20:01:38.991Z,98160.16
2022-09-03T20:05:19.368Z,98169.28
2022-09-03T20:08:06.841Z,98177.91
2022-09-03T20:10:34.935Z,98178.09
2022-09-03T20:13:17.147Z,98184.91
2022-09-03T20:15:59.585Z,98183.09
2022-09-03T20:18:56.493Z,98180.00
2022-09-03T20:21:40.134Z,98180.88
2022-09-03T20:24:28.216Z,98184.63
2022-09-03T20:27:17.449Z,98185.06
2022-09-03T20:30:02.070Z,98192.69
2022-09-03T20:32:42.886Z,98194.69
2022-09-03T20:35:37.353Z,98193.50
2022-09-03T20:38:06.661Z,98194.28
2022-09-03T20:40:48.720Z,98197.06
2022-09-03T20:43:33.329Z,98194.56
2022-09-03T20:46:37.358Z,98198.91
2022-09-03T20:49:03.903Z,98195.78
2022-09-03T20:51:39.362Z,98195.09
2022-09-03T20:54:09.487Z,98207.72
2022-09-03T20:56:36.469Z,98211.59
2022-09-03T20:59:30.381Z,98211.75
2022-09-03T21:02:09.286Z,98203.72
2022-09-03T21:04:47.980Z,98208.16
2022-09-03T21:07:41.488Z,98207.03
2022-09-03T21:10:31.921Z,98212.28
2022-09-03T21:13:12.470Z,98207.19
2022-09-03T21:15:39.301Z,98212.53
2022-09-03T21:18:12.783Z,98204.38
2022-09-03T21:20:46.411Z,98210.94
2022-09-03T21:23:26.185Z,98216.13
2022-09-03T21:26:02.374Z,98215.69
2022-09-03T21:28:40.318Z,98213.31
2022-09-03T21:31:19.905Z,98214.97
2022-09-03T21:33:54.123Z,98207.97
2022-09-03T21:36:30.262Z,98218.09
2022-09-03T21:39:20.938Z,98220.50
2022-09-03T21:41:55.635Z,98212.91
2022-09-03T21:44:42.404Z,98219.91
2022-09-03T21:47:18.484Z,98214.28
2022-09-03T21:50:16.775Z,98219.06
2022-09-03T21:52:59.079Z,98220.72
2022-09-03T21:56:04.222Z,98218.91
2022-09-03T21:58:36.779Z,98222.06
2022-09-03T22:01:12.993Z,98225.81
2022-09-03T22:03:41.415Z,98221.88
2022-09-03T22:06:14.519Z,98219.66
2022-09-03T22:08:49.192Z,98220.91
2022-09-03T22:11:21.729Z,98220.50
2022-09-03T22:14:01.082Z,98223.75
2022-09-03T22:16:41.063Z,98237.81
2022-09-03T22:19:16.312Z,98242.81
2022-09-03T22:22:00.221Z,98247.31
2022-09-03T22:24:34.549Z,98245.44
2022-09-03T22:27:14.606Z,98247.19
2022-09-03T22:30:26.244Z,98245.31
2022-09-03T22:33:15.744Z,98251.56
2022-09-03T22:36:35.463Z,98265.56
2022-09-03T22:39:15.805Z,98261.75
2022-09-03T22:42:07.739Z,98263.63
2022-09-03T22:45:15.212Z,98257.25
2022-09-03T22:48:25.091Z,98262.59
2022-09-03T22:51:21.487Z,98261.41
2022-09-03T22:55:21.274Z,98256.66
2022-09-03T23:00:57.694Z,98265.28
2022-09-03T23:07:00.214Z,98262.19
2022-09-03T23:09:36.965Z,98263.34
2022-09-03T23:12:16.321Z,98262.28
2022-09-03T23:14:59.581Z,98268.00
2022-09-03T23:17:44.039Z,98263.19
2022-09-03T23:20:32.301Z,98260.63
2022-09-03T23:23:29.695Z,98261.81
2022-09-03T23:26:51.073Z,98267.03
2022-09-03T23:29:31.889Z,98260.47
2022-09-03T23:32:14.720Z,98259.13
2022-09-03T23:34:57.884Z,98268.44
2022-09-03T23:38:23.008Z,98269.59
2022-09-03T23:41:05.207Z,98268.56
2022-09-03T23:43:56.217Z,98274.66
2022-09-03T23:47:13.077Z,98268.28
2022-09-03T23:50:14.481Z,98268.81
2022-09-03T23:53:22.143Z,98269.72
2022-09-03T23:56:07.417Z,98268.41
2022-09-03T23:59:00.423Z,98273.38
